sensor_id;sensor_type;location;lat;lon;timestamp;temperature;humidity
64869;DHT22;51349;52.424;10.840;2022-12-07T00:03:19;2.10;99.90
64869;DHT22;51349;52.424;10.840;2022-12-07T00:08:20;2.10;99.90
64869;DHT22;51349;52.424;10.840;2022-12-07T00:13:21;2.20;99.90
64869;DHT22;51349;52.424;10.840;2022-12-07T00:18:21;2.30;99.90
64869;DHT22;51349;52.424;10.840;2022-12-07T00:23:22;2.40;99.90
64869;DHT22;51349;52.424;10.840;2022-12-07T00:28:22;2.30;99.90
64869;DHT22;51349;52.424;10.840;2022-12-07T00:33:23;2.40;99.90
64869;DHT22;51349;52.424;10.840;2022-12-07T00:38:24;2.60;99.90
64869;DHT22;51349;52.424;10.840;2022-12-07T00:43:25;2.50;99.90
64869;DHT22;51349;52.424;10.840;2022-12-07T00:48:26;2.50;99.90
64869;DHT22;51349;52.424;10.840;2022-12-07T00:53:27;2.60;99.90
64869;DHT22;51349;52.424;10.840;2022-12-07T00:58:28;2.70;99.90
64869;DHT22;51349;52.424;10.840;2022-12-07T01:03:28;2.80;99.90
64869;DHT22;51349;52.424;10.840;2022-12-07T01:08:29;2.90;99.90
64869;DHT22;51349;52.424;10.840;2022-12-07T01:13:31;2.90;99.90
64869;DHT22;51349;52.424;10.840;2022-12-07T01:18:34;2.90;99.90
64869;DHT22;51349;52.424;10.840;2022-12-07T01:23:35;2.90;99.90
64869;DHT22;51349;52.424;10.840;2022-12-07T01:28:36;3.00;99.90
64869;DHT22;51349;52.424;10.840;2022-12-07T01:33:38;2.90;99.90
64869;DHT22;51349;52.424;10.840;2022-12-07T01:38:39;3.00;99.90
64869;DHT22;51349;52.424;10.840;2022-12-07T01:44:13;2.90;99.90
64869;DHT22;51349;52.424;10.840;2022-12-07T01:49:20;3.00;99.90
64869;DHT22;51349;52.424;10.840;2022-12-07T01:54:22;2.90;99.90
64869;DHT22;51349;52.424;10.840;2022-12-07T01:59:24;3.00;99.90
64869;DHT22;51349;52.424;10.840;2022-12-07T02:04:26;3.00;99.90
64869;DHT22;51349;52.424;10.840;2022-12-07T02:09:27;3.10;99.90
64869;DHT22;51349;52.424;10.840;2022-12-07T02:14:27;3.10;99.90
64869;DHT22;51349;52.424;10.840;2022-12-07T02:20:02;3.10;99.90
64869;DHT22;51349;52.424;10.840;2022-12-07T02:30:48;3.20;99.90
64869;DHT22;51349;52.424;10.840;2022-12-07T02:41:29;3.30;99.90
64869;DHT22;51349;52.424;10.840;2022-12-07T02:46:34;3.30;99.90
64869;DHT22;51349;52.424;10.840;2022-12-07T02:51:41;3.40;99.90
64869;DHT22;51349;52.424;10.840;2022-12-07T03:07:39;3.50;99.90
64869;DHT22;51349;52.424;10.840;2022-12-07T03:17:43;3.50;99.90
64869;DHT22;51349;52.424;10.840;2022-12-07T03:22:46;3.60;99.90
64869;DHT22;51349;52.424;10.840;2022-12-07T03:28:02;3.50;99.90
64869;DHT22;51349;52.424;10.840;2022-12-07T03:33:07;3.60;99.90
64869;DHT22;51349;52.424;10.840;2022-12-07T03:38:25;3.60;99.90
64869;DHT22;51349;52.424;10.840;2022-12-07T03:43:29;3.60;99.90
64869;DHT22;51349;52.424;10.840;2022-12-07T03:54:15;3.70;99.90
64869;DHT22;51349;52.424;10.840;2022-12-07T03:59:19;3.70;99.90
64869;DHT22;51349;52.424;10.840;2022-12-07T04:04:21;3.70;99.90
64869;DHT22;51349;52.424;10.840;2022-12-07T04:09:26;3.80;99.90
64869;DHT22;51349;52.424;10.840;2022-12-07T04:14:28;3.80;99.90
64869;DHT22;51349;52.424;10.840;2022-12-07T04:19:31;3.80;99.90
64869;DHT22;51349;52.424;10.840;2022-12-07T04:24:33;3.90;99.90
64869;DHT22;51349;52.424;10.840;2022-12-07T04:29:33;3.80;99.90
64869;DHT22;51349;52.424;10.840;2022-12-07T04:34:34;3.80;99.90
64869;DHT22;51349;52.424;10.840;2022-12-07T04:39:34;3.80;99.90
64869;DHT22;51349;52.424;10.840;2022-12-07T04:44:35;3.80;99.90
64869;DHT22;51349;52.424;10.840;2022-12-07T04:49:36;3.80;99.90
64869;DHT22;51349;52.424;10.840;2022-12-07T04:54:36;3.80;99.90
64869;DHT22;51349;52.424;10.840;2022-12-07T04:59:37;3.80;99.90
64869;DHT22;51349;52.424;10.840;2022-12-07T05:04:37;3.80;99.90
64869;DHT22;51349;52.424;10.840;2022-12-07T05:09:38;3.80;99.90
64869;DHT22;51349;52.424;10.840;2022-12-07T05:14:39;3.70;99.90
64869;DHT22;51349;52.424;10.840;2022-12-07T05:19:39;3.70;99.90
64869;DHT22;51349;52.424;10.840;2022-12-07T05:24:40;3.70;99.90
64869;DHT22;51349;52.424;10.840;2022-12-07T05:29:40;3.70;99.90
64869;DHT22;51349;52.424;10.840;2022-12-07T05:34:41;3.70;99.90
64869;DHT22;51349;52.424;10.840;2022-12-07T05:39:42;3.70;99.90
64869;DHT22;51349;52.424;10.840;2022-12-07T05:44:44;3.60;99.90
64869;DHT22;51349;52.424;10.840;2022-12-07T05:49:45;3.60;99.90
64869;DHT22;51349;52.424;10.840;2022-12-07T05:54:46;3.50;99.90
64869;DHT22;51349;52.424;10.840;2022-12-07T05:59:50;3.50;99.90
64869;DHT22;51349;52.424;10.840;2022-12-07T06:04:50;3.50;99.90
64869;DHT22;51349;52.424;10.840;2022-12-07T06:09:51;3.50;99.90
64869;DHT22;51349;52.424;10.840;2022-12-07T06:14:51;3.50;99.90
64869;DHT22;51349;52.424;10.840;2022-12-07T06:19:52;3.50;99.90
64869;DHT22;51349;52.424;10.840;2022-12-07T06:24:53;3.40;99.90
64869;DHT22;51349;52.424;10.840;2022-12-07T06:29:54;3.30;99.90
64869;DHT22;51349;52.424;10.840;2022-12-07T06:34:54;3.40;99.90
64869;DHT22;51349;52.424;10.840;2022-12-07T06:39:55;3.30;99.90
64869;DHT22;51349;52.424;10.840;2022-12-07T06:44:56;3.20;99.90
64869;DHT22;51349;52.424;10.840;2022-12-07T06:49:57;3.20;99.90
64869;DHT22;51349;52.424;10.840;2022-12-07T06:54:57;3.20;99.90
64869;DHT22;51349;52.424;10.840;2022-12-07T06:59:59;3.20;99.90
64869;DHT22;51349;52.424;10.840;2022-12-07T07:04:59;3.20;99.90
64869;DHT22;51349;52.424;10.840;2022-12-07T07:10:00;3.10;99.90
64869;DHT22;51349;52.424;10.840;2022-12-07T07:15:00;3.20;99.90
64869;DHT22;51349;52.424;10.840;2022-12-07T07:20:01;3.20;99.90
64869;DHT22;51349;52.424;10.840;2022-12-07T07:25:02;3.20;99.90
64869;DHT22;51349;52.424;10.840;2022-12-07T07:30:03;3.30;99.90
64869;DHT22;51349;52.424;10.840;2022-12-07T07:35:04;3.20;99.90
64869;DHT22;51349;52.424;10.840;2022-12-07T07:40:06;3.20;99.90
64869;DHT22;51349;52.424;10.840;2022-12-07T07:45:07;3.20;99.90
64869;DHT22;51349;52.424;10.840;2022-12-07T07:50:16;3.20;99.90
64869;DHT22;51349;52.424;10.840;2022-12-07T07:55:17;3.20;99.90
64869;DHT22;51349;52.424;10.840;2022-12-07T08:00:18;3.10;99.90
64869;DHT22;51349;52.424;10.840;2022-12-07T08:05:19;3.10;99.90
64869;DHT22;51349;52.424;10.840;2022-12-07T08:10:20;3.10;99.90
64869;DHT22;51349;52.424;10.840;2022-12-07T08:15:20;3.10;99.90
64869;DHT22;51349;52.424;10.840;2022-12-07T08:20:21;3.10;99.90
64869;DHT22;51349;52.424;10.840;2022-12-07T08:25:22;3.10;99.90
64869;DHT22;51349;52.424;10.840;2022-12-07T08:30:22;3.20;99.90
64869;DHT22;51349;52.424;10.840;2022-12-07T08:35:23;3.20;99.90
64869;DHT22;51349;52.424;10.840;2022-12-07T08:40:24;3.20;99.90
64869;DHT22;51349;52.424;10.840;2022-12-07T08:45:25;3.20;99.90
64869;DHT22;51349;52.424;10.840;2022-12-07T08:50:29;3.30;99.90
64869;DHT22;51349;52.424;10.840;2022-12-07T08:55:33;3.30;99.90
64869;DHT22;51349;52.424;10.840;2022-12-07T09:00:34;3.40;99.90
64869;DHT22;51349;52.424;10.840;2022-12-07T09:05:37;3.40;99.90
64869;DHT22;51349;52.424;10.840;2022-12-07T09:10:38;3.50;99.90
64869;DHT22;51349;52.424;10.840;2022-12-07T09:15:38;3.50;99.90
64869;DHT22;51349;52.424;10.840;2022-12-07T09:20:39;3.50;99.90
64869;DHT22;51349;52.424;10.840;2022-12-07T09:25:40;3.60;99.90
64869;DHT22;51349;52.424;10.840;2022-12-07T09:30:48;3.50;99.90
64869;DHT22;51349;52.424;10.840;2022-12-07T09:35:50;3.50;99.90
64869;DHT22;51349;52.424;10.840;2022-12-07T09:40:51;3.50;99.90
64869;DHT22;51349;52.424;10.840;2022-12-07T09:45:53;3.50;99.90
64869;DHT22;51349;52.424;10.840;2022-12-07T09:50:57;3.50;99.90
64869;DHT22;51349;52.424;10.840;2022-12-07T09:55:59;3.50;99.90
64869;DHT22;51349;52.424;10.840;2022-12-07T10:01:09;3.50;99.90
64869;DHT22;51349;52.424;10.840;2022-12-07T10:06:12;3.50;99.90
64869;DHT22;51349;52.424;10.840;2022-12-07T10:11:13;3.70;99.90
64869;DHT22;51349;52.424;10.840;2022-12-07T10:21:26;3.70;99.90
64869;DHT22;51349;52.424;10.840;2022-12-07T10:26:35;3.60;99.90
64869;DHT22;51349;52.424;10.840;2022-12-07T10:31:38;3.60;99.90
64869;DHT22;51349;52.424;10.840;2022-12-07T10:36:39;3.60;99.90
64869;DHT22;51349;52.424;10.840;2022-12-07T10:42:00;3.60;99.90
64869;DHT22;51349;52.424;10.840;2022-12-07T11:14:14;4.10;99.90
64869;DHT22;51349;52.424;10.840;2022-12-07T11:25:02;4.00;99.90
64869;DHT22;51349;52.424;10.840;2022-12-07T11:41:09;4.30;99.90
64869;DHT22;51349;52.424;10.840;2022-12-07T11:46:15;4.40;99.90
64869;DHT22;51349;52.424;10.840;2022-12-07T11:51:19;4.50;99.90
64869;DHT22;51349;52.424;10.840;2022-12-07T11:56:24;4.50;99.90
64869;DHT22;51349;52.424;10.840;2022-12-07T12:06:36;4.50;99.90
64869;DHT22;51349;52.424;10.840;2022-12-07T12:12:05;4.30;99.90
64869;DHT22;51349;52.424;10.840;2022-12-07T12:17:30;4.20;99.90
64869;DHT22;51349;52.424;10.840;2022-12-07T12:22:39;4.10;99.90
64869;DHT22;51349;52.424;10.840;2022-12-07T12:27:45;4.20;99.90
64869;DHT22;51349;52.424;10.840;2022-12-07T12:32:48;4.20;99.90
64869;DHT22;51349;52.424;10.840;2022-12-07T12:37:48;4.20;99.90
64869;DHT22;51349;52.424;10.840;2022-12-07T12:42:55;4.40;99.90
64869;DHT22;51349;52.424;10.840;2022-12-07T12:48:04;4.40;99.90
64869;DHT22;51349;52.424;10.840;2022-12-07T12:53:15;4.30;99.90
64869;DHT22;51349;52.424;10.840;2022-12-07T13:03:29;4.80;99.90
64869;DHT22;51349;52.424;10.840;2022-12-07T13:08:30;4.80;99.90
64869;DHT22;51349;52.424;10.840;2022-12-07T13:13:33;4.60;99.90
64869;DHT22;51349;52.424;10.840;2022-12-07T13:18:38;4.40;99.90
64869;DHT22;51349;52.424;10.840;2022-12-07T13:39:50;4.20;99.90
64869;DHT22;51349;52.424;10.840;2022-12-07T13:44:51;4.20;99.90
64869;DHT22;51349;52.424;10.840;2022-12-07T13:49:55;4.20;99.90
64869;DHT22;51349;52.424;10.840;2022-12-07T13:55:14;4.20;99.90
64869;DHT22;51349;52.424;10.840;2022-12-07T14:00:27;4.10;99.90
64869;DHT22;51349;52.424;10.840;2022-12-07T14:05:33;4.10;99.90
64869;DHT22;51349;52.424;10.840;2022-12-07T14:15:41;4.10;99.90
64869;DHT22;51349;52.424;10.840;2022-12-07T14:20:42;4.00;99.90
64869;DHT22;51349;52.424;10.840;2022-12-07T14:25:47;4.00;99.90
64869;DHT22;51349;52.424;10.840;2022-12-07T14:30:48;3.90;99.90
64869;DHT22;51349;52.424;10.840;2022-12-07T14:35:49;3.90;99.90
64869;DHT22;51349;52.424;10.840;2022-12-07T14:40:51;3.90;99.90
64869;DHT22;51349;52.424;10.840;2022-12-07T14:45:52;3.90;99.90
64869;DHT22;51349;52.424;10.840;2022-12-07T14:50:53;3.80;99.90
64869;DHT22;51349;52.424;10.840;2022-12-07T14:55:54;3.40;99.90
64869;DHT22;51349;52.424;10.840;2022-12-07T15:00:54;3.10;99.90
64869;DHT22;51349;52.424;10.840;2022-12-07T15:05:55;2.90;99.90
64869;DHT22;51349;52.424;10.840;2022-12-07T15:10:55;2.80;99.90
64869;DHT22;51349;52.424;10.840;2022-12-07T15:15:56;2.70;99.90
64869;DHT22;51349;52.424;10.840;2022-12-07T15:20:57;2.50;99.90
64869;DHT22;51349;52.424;10.840;2022-12-07T15:25:57;2.20;99.90
64869;DHT22;51349;52.424;10.840;2022-12-07T15:30:58;2.20;99.90
64869;DHT22;51349;52.424;10.840;2022-12-07T15:35:59;2.20;99.90
64869;DHT22;51349;52.424;10.840;2022-12-07T15:40:59;2.10;99.90
64869;DHT22;51349;52.424;10.840;2022-12-07T15:46:00;2.00;99.90
64869;DHT22;51349;52.424;10.840;2022-12-07T15:51:05;1.90;99.90
64869;DHT22;51349;52.424;10.840;2022-12-07T15:56:07;1.90;99.90
64869;DHT22;51349;52.424;10.840;2022-12-07T16:01:12;1.90;99.90
64869;DHT22;51349;52.424;10.840;2022-12-07T16:06:16;1.80;99.90
64869;DHT22;51349;52.424;10.840;2022-12-07T16:11:17;1.70;99.90
64869;DHT22;51349;52.424;10.840;2022-12-07T16:16:19;1.40;99.90
64869;DHT22;51349;52.424;10.840;2022-12-07T16:21:21;1.20;99.90
64869;DHT22;51349;52.424;10.840;2022-12-07T16:26:22;1.00;99.90
64869;DHT22;51349;52.424;10.840;2022-12-07T16:31:24;0.90;99.90
64869;DHT22;51349;52.424;10.840;2022-12-07T16:36:25;0.90;99.90
64869;DHT22;51349;52.424;10.840;2022-12-07T16:41:27;0.90;99.90
64869;DHT22;51349;52.424;10.840;2022-12-07T16:46:28;0.80;99.90
64869;DHT22;51349;52.424;10.840;2022-12-07T16:51:29;0.90;99.90
64869;DHT22;51349;52.424;10.840;2022-12-07T16:56:29;0.80;99.90
64869;DHT22;51349;52.424;10.840;2022-12-07T17:01:30;0.80;99.90
64869;DHT22;51349;52.424;10.840;2022-12-07T17:06:31;0.80;99.90
64869;DHT22;51349;52.424;10.840;2022-12-07T17:11:32;0.70;99.90
64869;DHT22;51349;52.424;10.840;2022-12-07T17:16:33;0.70;99.90
64869;DHT22;51349;52.424;10.840;2022-12-07T17:21:35;0.80;99.90
64869;DHT22;51349;52.424;10.840;2022-12-07T17:26:36;0.80;99.90
64869;DHT22;51349;52.424;10.840;2022-12-07T17:31:37;0.90;99.90
64869;DHT22;51349;52.424;10.840;2022-12-07T17:36:38;1.00;99.90
64869;DHT22;51349;52.424;10.840;2022-12-07T17:41:39;1.00;99.90
64869;DHT22;51349;52.424;10.840;2022-12-07T17:46:58;1.10;99.90
64869;DHT22;51349;52.424;10.840;2022-12-07T17:52:01;1.00;99.90
64869;DHT22;51349;52.424;10.840;2022-12-07T17:57:20;1.10;99.90
64869;DHT22;51349;52.424;10.840;2022-12-07T18:02:21;1.10;99.90
64869;DHT22;51349;52.424;10.840;2022-12-07T18:07:22;1.10;99.90
64869;DHT22;51349;52.424;10.840;2022-12-07T18:12:23;1.20;99.90
64869;DHT22;51349;52.424;10.840;2022-12-07T18:17:23;1.30;99.90
64869;DHT22;51349;52.424;10.840;2022-12-07T18:22:24;1.20;99.90
64869;DHT22;51349;52.424;10.840;2022-12-07T18:27:24;1.20;99.90
64869;DHT22;51349;52.424;10.840;2022-12-07T18:32:25;1.20;99.90
64869;DHT22;51349;52.424;10.840;2022-12-07T18:37:25;1.20;99.90
64869;DHT22;51349;52.424;10.840;2022-12-07T18:42:27;1.30;99.90
64869;DHT22;51349;52.424;10.840;2022-12-07T18:47:28;1.30;99.90
64869;DHT22;51349;52.424;10.840;2022-12-07T18:52:28;1.20;99.90
64869;DHT22;51349;52.424;10.840;2022-12-07T18:57:35;1.20;99.90
64869;DHT22;51349;52.424;10.840;2022-12-07T19:02:35;1.20;99.90
64869;DHT22;51349;52.424;10.840;2022-12-07T19:07:36;1.30;99.90
64869;DHT22;51349;52.424;10.840;2022-12-07T19:12:37;1.30;99.90
64869;DHT22;51349;52.424;10.840;2022-12-07T19:17:38;1.40;99.90
64869;DHT22;51349;52.424;10.840;2022-12-07T19:22:39;1.40;99.90
64869;DHT22;51349;52.424;10.840;2022-12-07T19:27:39;1.40;99.90
64869;DHT22;51349;52.424;10.840;2022-12-07T19:32:40;1.40;99.90
64869;DHT22;51349;52.424;10.840;2022-12-07T19:37:40;1.30;99.90
64869;DHT22;51349;52.424;10.840;2022-12-07T19:42:41;1.40;99.90
64869;DHT22;51349;52.424;10.840;2022-12-07T19:47:42;1.40;99.90
64869;DHT22;51349;52.424;10.840;2022-12-07T19:52:42;1.30;99.90
64869;DHT22;51349;52.424;10.840;2022-12-07T19:57:43;1.30;99.90
64869;DHT22;51349;52.424;10.840;2022-12-07T20:02:43;1.30;99.90
64869;DHT22;51349;52.424;10.840;2022-12-07T20:07:44;1.30;99.90
64869;DHT22;51349;52.424;10.840;2022-12-07T20:12:45;1.30;99.90
64869;DHT22;51349;52.424;10.840;2022-12-07T20:18:04;1.30;99.90
64869;DHT22;51349;52.424;10.840;2022-12-07T20:23:05;1.30;99.90
64869;DHT22;51349;52.424;10.840;2022-12-07T20:28:05;1.30;99.90
64869;DHT22;51349;52.424;10.840;2022-12-07T20:33:06;1.40;99.90
64869;DHT22;51349;52.424;10.840;2022-12-07T20:38:08;1.30;99.90
64869;DHT22;51349;52.424;10.840;2022-12-07T20:43:08;1.20;99.90
64869;DHT22;51349;52.424;10.840;2022-12-07T20:48:09;1.20;99.90
64869;DHT22;51349;52.424;10.840;2022-12-07T20:53:09;1.20;99.90
64869;DHT22;51349;52.424;10.840;2022-12-07T20:58:10;1.20;99.90
64869;DHT22;51349;52.424;10.840;2022-12-07T21:03:11;1.10;99.90
64869;DHT22;51349;52.424;10.840;2022-12-07T21:08:11;1.10;99.90
64869;DHT22;51349;52.424;10.840;2022-12-07T21:13:12;1.20;99.90
64869;DHT22;51349;52.424;10.840;2022-12-07T21:18:13;1.20;99.90
64869;DHT22;51349;52.424;10.840;2022-12-07T21:23:13;1.30;99.90
64869;DHT22;51349;52.424;10.840;2022-12-07T21:28:14;1.20;99.90
64869;DHT22;51349;52.424;10.840;2022-12-07T21:33:17;1.20;99.90
64869;DHT22;51349;52.424;10.840;2022-12-07T21:38:18;1.20;99.90
64869;DHT22;51349;52.424;10.840;2022-12-07T21:43:19;1.20;99.90
64869;DHT22;51349;52.424;10.840;2022-12-07T21:48:20;1.20;99.90
64869;DHT22;51349;52.424;10.840;2022-12-07T21:53:20;1.30;99.90
64869;DHT22;51349;52.424;10.840;2022-12-07T21:58:21;1.20;99.90
64869;DHT22;51349;52.424;10.840;2022-12-07T22:03:22;1.30;99.90
64869;DHT22;51349;52.424;10.840;2022-12-07T22:08:22;1.30;99.90
64869;DHT22;51349;52.424;10.840;2022-12-07T22:13:23;1.30;99.90
64869;DHT22;51349;52.424;10.840;2022-12-07T22:18:43;1.20;99.90
64869;DHT22;51349;52.424;10.840;2022-12-07T22:23:44;1.20;99.90
64869;DHT22;51349;52.424;10.840;2022-12-07T22:28:45;1.40;99.90
64869;DHT22;51349;52.424;10.840;2022-12-07T22:33:46;1.40;99.90
64869;DHT22;51349;52.424;10.840;2022-12-07T22:38:46;1.40;99.90
64869;DHT22;51349;52.424;10.840;2022-12-07T22:43:47;1.50;99.90
64869;DHT22;51349;52.424;10.840;2022-12-07T22:48:48;1.50;99.90
64869;DHT22;51349;52.424;10.840;2022-12-07T22:53:49;1.40;99.90
64869;DHT22;51349;52.424;10.840;2022-12-07T22:58:50;1.50;99.90
64869;DHT22;51349;52.424;10.840;2022-12-07T23:03:51;1.50;99.90
64869;DHT22;51349;52.424;10.840;2022-12-07T23:08:52;1.50;99.90
64869;DHT22;51349;52.424;10.840;2022-12-07T23:13:55;1.60;99.90
64869;DHT22;51349;52.424;10.840;2022-12-07T23:18:55;1.70;99.90
64869;DHT22;51349;52.424;10.840;2022-12-07T23:23:56;1.80;99.90
64869;DHT22;51349;52.424;10.840;2022-12-07T23:28:57;1.90;99.90
64869;DHT22;51349;52.424;10.840;2022-12-07T23:33:57;1.80;99.90
64869;DHT22;51349;52.424;10.840;2022-12-07T23:38:58;1.90;99.90
64869;DHT22;51349;52.424;10.840;2022-12-07T23:43:59;1.90;99.90
64869;DHT22;51349;52.424;10.840;2022-12-07T23:49:02;1.90;99.90
64869;DHT22;51349;52.424;10.840;2022-12-07T23:54:03;1.90;99.90
64869;DHT22;51349;52.424;10.840;2022-12-07T23:59:04;1.90;99.90
